SAZM/MDD METAR and TAF weather

Enter ICAO airport designator
Station Type Date Time Source
SAZM METAR 2021/01/22 06:00 UTC NOAA

SAZM 220600Z 02006KT 5000 BR SCT004 19/19 Q1020


Station Type Date Time Source
SAZM Decoded METAR 2021/01/22 06:00 UTC NOAA

Mar Del Plata Aerodrome, Argentina (SAZM) 37-56S 057-35W 21M
Jan 22, 2021 - 01:00 AM EST / 2021.01.22 0600 UTC
Wind: from the NNE (020 degrees) at 7 MPH (6 KT):0
Visibility: 3 mile(s):0
Sky conditions: partly cloudy
Weather: mist
Temperature: 66 F (19 C)
Dew Point: 66 F (19 C)
Relative Humidity: 100%
Pressure (altimeter): 30.12 in. Hg (1020 hPa)
ob: SAZM 220600Z 02006KT 5000 BR SCT004 19/19 Q1020
cycle: 6

Station Type Date Time Source
SAZM TAF 2021/01/22 06:12 UTC NOAA

TAF SAZM 220500Z 2206/2306 02005KT 3000 BR NSC TX32/2218Z TN18/2209Z
TEMPO 2208/2210 0800 FG OVC007
BECMG 2211/2212 34010KT 5000 BR SCT005 SCT010
BECMG 2212/2214 02015KT CAVOK

Example: see airport list